Time;durP1;ratioP1;P1;durP2;ratioP2;P2;SDS_P1;SDS_P2;PMS_P1;PMS_P2;Temp;Humidity;BMP_temperature;BMP_pressure;BME280_temperature;BME280_humidity;BME280_pressure;Samples;Min_cycle;Max_cycle;Signal;HPM_P1;HPM_P2
2022/01/06 00:01:55;;;;;;;12.20;1.50;;;6.10;99.90;;;;;;5079863;28;20024;-60
2022/01/06 00:04:21;;;;;;;18.00;2.03;;;6.00;99.90;;;;;;5079493;28;20107;-60
2022/01/06 00:06:47;;;;;;;8.85;1.92;;;6.00;99.90;;;;;;5079234;28;20028;-60
2022/01/06 00:09:15;;;;;;;10.70;1.58;;;6.00;99.90;;;;;;5079171;28;20043;-61
2022/01/06 00:11:42;;;;;;;9.05;1.73;;;6.10;99.90;;;;;;5079133;28;20097;-60
2022/01/06 00:24:16;;;;;;;13.60;2.05;;;5.90;99.90;;;;;;5079631;28;20032;-61
2022/01/06 00:26:42;;;;;;;13.70;2.15;;;5.90;99.90;;;;;;5078749;28;20042;-61
2022/01/06 00:29:08;;;;;;;11.20;1.60;;;5.80;99.90;;;;;;5079392;28;20040;-60
2022/01/06 00:31:35;;;;;;;9.30;2.42;;;5.80;99.90;;;;;;5079478;28;20037;-61
2022/01/06 00:34:01;;;;;;;8.63;1.33;;;5.70;99.90;;;;;;5079303;28;20040;-60
2022/01/06 00:36:27;;;;;;;10.57;2.00;;;5.70;99.90;;;;;;5078576;28;20040;-61
2022/01/06 00:38:53;;;;;;;9.65;1.35;;;5.60;99.90;;;;;;5078506;28;20041;-60
2022/01/06 00:41:19;;;;;;;10.18;1.70;;;5.50;99.90;;;;;;5079120;28;20033;-61
2022/01/06 00:43:45;;;;;;;14.38;2.35;;;5.70;99.90;;;;;;5079101;28;20114;-61
2022/01/06 00:46:11;;;;;;;9.88;1.55;;;5.70;99.90;;;;;;5078902;28;20352;-59
2022/01/06 00:48:37;;;;;;;13.45;1.92;;;5.70;99.90;;;;;;5079020;28;20384;-60
2022/01/06 00:51:03;;;;;;;12.93;1.70;;;5.70;99.90;;;;;;5078233;28;20339;-60
2022/01/06 00:53:28;;;;;;;9.80;1.63;;;5.80;99.90;;;;;;5078161;28;20033;-60
2022/01/06 00:55:54;;;;;;;10.73;1.60;;;5.90;99.90;;;;;;5078952;28;20387;-60
2022/01/06 00:58:20;;;;;;;14.45;2.05;;;5.70;99.90;;;;;;5078113;28;20028;-60
2022/01/06 01:00:46;;;;;;;13.10;2.10;;;5.70;99.90;;;;;;5061298;28;20037;-59
2022/01/06 01:03:18;;;;;;;10.77;2.45;;;5.50;99.90;;;;;;5078638;28;20063;-58
2022/01/06 01:05:46;;;;;;;9.17;2.20;;;5.50;99.90;;;;;;5078682;28;20448;-60
2022/01/06 01:08:12;;;;;;;7.97;2.13;;;5.50;99.90;;;;;;5078552;28;20294;-58
2022/01/06 01:10:39;;;;;;;11.77;2.40;;;5.40;99.90;;;;;;5079137;28;20040;-58
2022/01/06 01:13:08;;;;;;;13.80;2.25;;;5.50;99.90;;;;;;5077917;28;20036;-59
2022/01/06 01:15:41;;;;;;;14.68;2.05;;;5.40;99.90;;;;;;5078429;28;20400;-59
2022/01/06 01:18:10;;;;;;;8.50;2.20;;;5.30;99.90;;;;;;5062476;28;20369;-59
2022/01/06 01:20:36;;;;;;;8.75;2.35;;;5.20;99.90;;;;;;5078483;28;20324;-60
2022/01/06 01:23:02;;;;;;;15.90;2.35;;;5.20;99.90;;;;;;5078363;28;20044;-59
2022/01/06 01:25:28;;;;;;;9.65;2.10;;;5.20;99.90;;;;;;5078659;28;20300;-60
2022/01/06 01:27:55;;;;;;;12.77;2.00;;;5.10;99.90;;;;;;5077584;28;20037;-59
2022/01/06 01:30:29;;;;;;;8.95;2.13;;;5.10;99.90;;;;;;5078321;28;20037;-59
2022/01/06 01:32:56;;;;;;;13.57;2.33;;;5.10;99.90;;;;;;5078350;28;20074;-60
2022/01/06 01:35:22;;;;;;;15.73;2.03;;;5.10;99.90;;;;;;5077616;28;20345;-59
2022/01/06 01:37:48;;;;;;;17.00;2.20;;;5.20;99.90;;;;;;5077228;28;20135;-60
2022/01/06 01:40:14;;;;;;;15.25;2.83;;;5.20;99.90;;;;;;5078187;28;20347;-60
2022/01/06 01:42:40;;;;;;;7.68;2.10;;;5.10;99.90;;;;;;5077902;28;20112;-60
2022/01/06 01:45:08;;;;;;;14.70;2.20;;;5.20;99.90;;;;;;5078019;28;20085;-60
2022/01/06 01:47:44;;;;;;;14.52;2.55;;;5.30;99.90;;;;;;5077679;28;20032;-59
2022/01/06 01:50:15;;;;;;;12.70;2.95;;;5.30;99.90;;;;;;5078543;28;20462;-61
2022/01/06 01:52:45;;;;;;;13.82;2.45;;;5.30;99.90;;;;;;5078282;28;20048;-60
2022/01/06 01:55:13;;;;;;;18.27;2.45;;;5.30;99.90;;;;;;5078339;28;20433;-60
2022/01/06 01:57:39;;;;;;;13.52;3.15;;;5.30;99.90;;;;;;5077049;28;20028;-59
2022/01/06 02:00:07;;;;;;;14.63;2.20;;;5.20;99.90;;;;;;5077050;28;20024;-60
2022/01/06 02:02:38;;;;;;;14.43;2.38;;;5.20;99.90;;;;;;5077610;28;20037;-58
2022/01/06 02:05:06;;;;;;;13.15;2.05;;;5.30;99.90;;;;;;5077631;28;20035;-60
2022/01/06 02:07:33;;;;;;;9.30;1.63;;;5.30;99.90;;;;;;5077559;28;20036;-59
2022/01/06 02:10:00;;;;;;;15.43;2.20;;;5.50;99.90;;;;;;5078055;28;20035;-60
2022/01/06 02:12:28;;;;;;;12.15;2.00;;;5.60;99.90;;;;;;5076606;28;20043;-59
2022/01/06 02:14:54;;;;;;;9.90;1.67;;;5.50;99.90;;;;;;5077485;28;20029;-60
2022/01/06 02:17:20;;;;;;;15.70;2.15;;;5.50;99.90;;;;;;5076586;28;20396;-59
2022/01/06 02:20:14;;;;;;;16.00;2.80;;;5.50;99.90;;;;;;5076972;28;20059;-59
2022/01/06 02:22:40;;;;;;;16.33;2.10;;;5.40;99.90;;;;;;5075539;28;20090;-59
2022/01/06 02:25:15;;;;;;;10.70;1.92;;;5.40;99.90;;;;;;5077332;28;20081;-60
2022/01/06 02:27:43;;;;;;;16.95;1.88;;;5.40;99.90;;;;;;5077435;28;20380;-60
2022/01/06 02:30:10;;;;;;;17.48;2.60;;;5.50;99.90;;;;;;5077226;28;20062;-60
2022/01/06 02:32:36;;;;;;;11.52;1.88;;;5.40;99.90;;;;;;5077121;28;20037;-59
2022/01/06 02:35:08;;;;;;;13.63;2.33;;;5.30;99.90;;;;;;5077243;28;20024;-60
2022/01/06 02:37:34;;;;;;;15.87;2.17;;;5.20;99.90;;;;;;5076930;28;20340;-59
2022/01/06 02:40:00;;;;;;;10.73;1.77;;;5.20;99.90;;;;;;5077091;28;20051;-59
2022/01/06 02:42:26;;;;;;;10.65;1.75;;;5.10;99.90;;;;;;5077190;28;20380;-60
2022/01/06 02:44:52;;;;;;;14.38;2.03;;;5.20;99.90;;;;;;5077086;28;20043;-60
2022/01/06 02:47:18;;;;;;;16.33;2.00;;;5.40;99.90;;;;;;5077009;28;20028;-59
2022/01/06 02:49:44;;;;;;;13.65;1.80;;;5.60;99.90;;;;;;5076264;28;20032;-60
2022/01/06 02:52:09;;;;;;;12.50;1.70;;;5.50;99.90;;;;;;5076951;28;20028;-59
2022/01/06 02:54:35;;;;;;;8.35;1.58;;;5.40;99.90;;;;;;5076893;28;20040;-59
2022/01/06 02:57:03;;;;;;;10.52;2.05;;;5.50;99.90;;;;;;5076809;28;20059;-59
2022/01/06 02:59:29;;;;;;;24.10;2.42;;;5.50;99.90;;;;;;5076889;28;20036;-60
2022/01/06 03:01:54;;;;;;;10.77;1.80;;;5.60;99.90;;;;;;5076029;28;20036;-59
2022/01/06 03:04:23;;;;;;;13.02;1.77;;;5.60;99.90;;;;;;5076793;28;20295;-59
2022/01/06 03:06:49;;;;;;;11.55;1.88;;;5.50;99.90;;;;;;5076791;28;20029;-59
2022/01/06 03:09:24;;;;;;;14.98;2.15;;;5.60;99.90;;;;;;5076740;28;20032;-60
2022/01/06 03:11:51;;;;;;;13.68;1.50;;;5.50;99.90;;;;;;5076753;28;20037;-59
2022/01/06 03:14:17;;;;;;;14.40;1.90;;;5.40;99.90;;;;;;5076709;28;20033;-60
2022/01/06 03:16:43;;;;;;;13.73;1.75;;;5.20;99.90;;;;;;5076712;28;20036;-59
2022/01/06 03:19:08;;;;;;;10.73;1.77;;;5.30;99.90;;;;;;5076633;28;20029;-59
2022/01/06 03:21:34;;;;;;;12.38;2.17;;;5.40;99.90;;;;;;5076605;28;20098;-61
2022/01/06 03:24:00;;;;;;;14.27;1.90;;;5.40;99.90;;;;;;5059335;28;20383;-59
2022/01/06 03:26:26;;;;;;;12.02;1.67;;;5.40;99.90;;;;;;5076639;28;20041;-60
2022/01/06 03:28:52;;;;;;;19.40;2.40;;;5.40;99.90;;;;;;5076561;28;20407;-60
2022/01/06 03:31:18;;;;;;;9.75;1.73;;;5.50;99.90;;;;;;5075842;28;20025;-59
2022/01/06 03:33:44;;;;;;;13.35;1.85;;;5.60;99.90;;;;;;5076565;28;20287;-60
2022/01/06 03:36:10;;;;;;;10.18;1.70;;;5.60;99.90;;;;;;5078711;28;20451;-60
2022/01/06 03:38:36;;;;;;;9.68;1.63;;;5.60;99.90;;;;;;5080676;28;20056;-60
2022/01/06 03:41:02;;;;;;;11.68;2.55;;;5.60;99.90;;;;;;5080578;28;20067;-60
2022/01/06 03:43:28;;;;;;;16.33;1.88;;;5.90;99.90;;;;;;5080588;28;20047;-60
2022/01/06 03:45:54;;;;;;;10.57;1.75;;;5.80;99.90;;;;;;5080378;28;20404;-60
2022/01/06 03:48:20;;;;;;;10.25;1.33;;;5.70;99.90;;;;;;5079568;28;20028;-60
2022/01/06 03:50:46;;;;;;;12.30;1.77;;;5.70;99.90;;;;;;5079470;28;20103;-59
2022/01/06 03:53:12;;;;;;;15.20;2.05;;;5.60;99.90;;;;;;5080191;28;20028;-59
2022/01/06 03:55:39;;;;;;;12.20;1.67;;;5.50;99.90;;;;;;5080426;28;20047;-59
2022/01/06 03:58:05;;;;;;;12.45;2.00;;;5.50;99.90;;;;;;5080338;28;20419;-60
2022/01/06 04:00:31;;;;;;;12.68;1.60;;;5.50;99.90;;;;;;5080613;28;20045;-59
2022/01/06 04:02:57;;;;;;;14.90;2.15;;;5.50;99.90;;;;;;5079166;28;20040;-60
2022/01/06 04:05:23;;;;;;;11.13;1.95;;;5.30;99.90;;;;;;5080520;28;20033;-60
2022/01/06 04:07:49;;;;;;;10.57;2.05;;;5.20;99.90;;;;;;5079681;28;20471;-60
2022/01/06 04:10:15;;;;;;;12.77;2.15;;;5.10;99.90;;;;;;5079868;28;20032;-60
2022/01/06 04:12:41;;;;;;;14.40;2.25;;;4.90;99.90;;;;;;5079391;28;20093;-60
2022/01/06 04:15:12;;;;;;;15.60;2.47;;;4.90;99.90;;;;;;5079897;28;20064;-59
2022/01/06 04:17:38;;;;;;;13.98;2.47;;;4.80;99.90;;;;;;5079701;28;20028;-60
2022/01/06 04:20:07;;;;;;;16.50;1.92;;;4.60;99.90;;;;;;5079003;28;20354;-59
2022/01/06 04:22:34;;;;;;;14.43;1.88;;;4.50;99.90;;;;;;5079633;28;20021;-60
2022/01/06 04:25:00;;;;;;;9.27;2.10;;;4.40;99.90;;;;;;5079554;28;20114;-59
2022/01/06 04:27:26;;;;;;;10.95;2.28;;;4.40;99.90;;;;;;5078814;28;20037;-60
2022/01/06 04:29:52;;;;;;;10.43;2.35;;;4.40;99.90;;;;;;5079527;28;20444;-59
2022/01/06 04:32:18;;;;;;;14.77;2.65;;;4.40;99.90;;;;;;5062066;28;20052;-59
2022/01/06 04:34:44;;;;;;;15.30;2.20;;;4.30;99.90;;;;;;5079397;28;20075;-59
2022/01/06 04:37:10;;;;;;;13.18;1.83;;;4.40;99.90;;;;;;5061765;28;20121;-59
2022/01/06 04:39:36;;;;;;;16.33;2.00;;;4.40;99.90;;;;;;5078502;28;20040;-59
2022/01/06 04:42:02;;;;;;;13.52;2.60;;;4.50;99.90;;;;;;5061921;28;20090;-60
2022/01/06 04:44:27;;;;;;;19.25;2.75;;;4.50;99.90;;;;;;5078571;28;20033;-60
2022/01/06 04:46:53;;;;;;;15.38;2.10;;;4.60;99.90;;;;;;5078327;28;20052;-61
2022/01/06 04:49:19;;;;;;;12.35;2.78;;;4.60;99.90;;;;;;5078315;28;20090;-59
2022/01/06 04:51:45;;;;;;;12.82;2.15;;;4.50;99.90;;;;;;5079137;28;20407;-60
2022/01/06 04:54:11;;;;;;;17.40;2.60;;;4.50;99.90;;;;;;5078294;28;20378;-60
2022/01/06 04:56:37;;;;;;;13.45;2.30;;;4.40;99.90;;;;;;5079038;28;20037;-60
2022/01/06 04:59:05;;;;;;;14.65;2.33;;;4.30;99.90;;;;;;5078973;28;20419;-59
2022/01/06 05:01:31;;;;;;;19.25;2.85;;;4.30;99.90;;;;;;5078909;28;20324;-64
2022/01/06 05:03:57;;;;;;;16.30;2.95;;;4.30;99.90;;;;;;5078096;28;20340;-63
2022/01/06 05:06:23;;;;;;;18.83;3.22;;;4.30;99.90;;;;;;5078890;28;20292;-64
2022/01/06 05:08:49;;;;;;;15.70;2.70;;;4.20;99.90;;;;;;5078911;28;20120;-64
2022/01/06 05:11:15;;;;;;;9.38;2.05;;;4.30;99.90;;;;;;5078033;28;20095;-64
2022/01/06 05:13:41;;;;;;;19.88;2.97;;;4.30;99.90;;;;;;5078641;28;20051;-64
2022/01/06 05:16:07;;;;;;;16.17;2.95;;;4.30;99.90;;;;;;5078709;28;20082;-64
2022/01/06 05:18:34;;;;;;;18.63;3.28;;;4.20;99.90;;;;;;5078753;28;20029;-64
2022/01/06 05:21:00;;;;;;;19.58;3.28;;;4.20;99.90;;;;;;5078614;28;20102;-64
2022/01/06 05:23:26;;;;;;;16.00;3.00;;;4.30;99.90;;;;;;5078146;28;20399;-64
2022/01/06 05:25:52;;;;;;;13.13;2.72;;;4.30;99.90;;;;;;5078540;28;20033;-63
2022/01/06 05:28:18;;;;;;;13.93;3.05;;;4.20;99.90;;;;;;5077640;28;20039;-64
2022/01/06 05:30:44;;;;;;;18.75;3.33;;;4.20;99.90;;;;;;5078624;28;20024;-64
2022/01/06 05:33:12;;;;;;;17.58;2.72;;;4.10;99.90;;;;;;5078160;28;20064;-63
2022/01/06 05:35:39;;;;;;;16.88;3.03;;;4.10;99.90;;;;;;5078562;28;20379;-63
2022/01/06 05:38:05;;;;;;;14.43;2.85;;;3.90;99.90;;;;;;5078091;28;20051;-64
2022/01/06 05:40:31;;;;;;;10.35;2.42;;;3.90;99.90;;;;;;5078461;28;20033;-64
2022/01/06 05:42:57;;;;;;;14.68;3.08;;;3.90;99.90;;;;;;5077653;28;20392;-65
2022/01/06 05:45:24;;;;;;;19.42;3.22;;;4.00;99.90;;;;;;5077257;28;20036;-64
2022/01/06 05:47:50;;;;;;;12.93;3.97;;;3.90;99.90;;;;;;5078012;28;20037;-65
2022/01/06 05:50:16;;;;;;;14.00;3.80;;;4.00;99.90;;;;;;5078028;28;20339;-64
2022/01/06 05:52:42;;;;;;;17.65;3.88;;;4.00;99.90;;;;;;5078887;28;20039;-63
2022/01/06 05:55:08;;;;;;;18.80;4.20;;;4.00;99.90;;;;;;5077248;28;20036;-64
2022/01/06 05:57:34;;;;;;;17.45;3.83;;;4.00;99.90;;;;;;5076792;28;20089;-64
2022/01/06 06:00:00;;;;;;;17.98;4.50;;;3.90;99.90;;;;;;5060325;28;20032;-64
2022/01/06 06:02:26;;;;;;;17.35;4.38;;;3.90;99.90;;;;;;5077658;28;20331;-64
2022/01/06 06:04:52;;;;;;;18.08;4.72;;;3.90;99.90;;;;;;5077645;28;20269;-64
2022/01/06 06:07:19;;;;;;;19.33;4.63;;;3.90;99.90;;;;;;5078064;28;20036;-63
2022/01/06 06:09:46;;;;;;;20.20;5.45;;;3.90;99.90;;;;;;5077657;28;20039;-63
2022/01/06 06:12:12;;;;;;;16.83;4.60;;;3.90;99.90;;;;;;5077422;28;20058;-64
2022/01/06 06:14:38;;;;;;;17.35;4.70;;;3.90;99.90;;;;;;5077648;28;20029;-63
2022/01/06 06:17:04;;;;;;;16.88;5.22;;;3.90;99.90;;;;;;5077476;28;20392;-63
2022/01/06 06:19:30;;;;;;;14.98;4.95;;;4.00;99.90;;;;;;5077264;28;20076;-63
2022/01/06 06:21:55;;;;;;;14.98;5.28;;;3.90;99.90;;;;;;5076533;28;20344;-63
2022/01/06 06:24:23;;;;;;;19.60;5.28;;;3.90;99.90;;;;;;5076474;28;20103;-63
2022/01/06 06:26:50;;;;;;;22.90;5.57;;;3.90;99.90;;;;;;5077920;28;20056;-64
2022/01/06 06:29:17;;;;;;;22.75;5.60;;;3.80;99.90;;;;;;5076369;28;20028;-64
2022/01/06 06:31:43;;;;;;;14.43;4.63;;;3.80;99.90;;;;;;5076515;28;20428;-64
2022/01/06 06:34:10;;;;;;;25.27;5.90;;;3.80;99.90;;;;;;5077128;28;20040;-64
2022/01/06 06:36:35;;;;;;;24.08;5.82;;;4.00;99.90;;;;;;5076904;28;20053;-64
2022/01/06 06:39:02;;;;;;;18.63;5.82;;;4.00;99.90;;;;;;5059698;28;20037;-64
2022/01/06 06:41:27;;;;;;;18.80;5.13;;;4.00;99.90;;;;;;5076320;28;20059;-63
2022/01/06 06:43:53;;;;;;;19.10;6.00;;;4.00;99.90;;;;;;5076424;28;20056;-63
2022/01/06 06:46:19;;;;;;;27.30;5.72;;;4.00;99.90;;;;;;5076301;28;20029;-65
2022/01/06 06:48:45;;;;;;;25.02;6.30;;;4.00;99.90;;;;;;5076440;28;20028;-64
2022/01/06 06:51:13;;;;;;;18.73;5.32;;;4.10;99.90;;;;;;5076238;28;20036;-64
2022/01/06 06:53:40;;;;;;;18.30;5.90;;;4.10;99.90;;;;;;5076874;28;20085;-63
2022/01/06 06:56:07;;;;;;;21.77;5.55;;;4.30;99.90;;;;;;5077477;28;20041;-64
2022/01/06 06:58:33;;;;;;;22.33;5.30;;;4.30;99.90;;;;;;5076951;28;20028;-64
2022/01/06 07:00:58;;;;;;;10.40;4.43;;;4.30;99.90;;;;;;5076859;28;20368;-63
2022/01/06 07:03:24;;;;;;;16.75;4.53;;;4.30;99.90;;;;;;5076743;28;20107;-63
2022/01/06 07:05:50;;;;;;;15.18;4.47;;;4.20;99.90;;;;;;5077364;28;20028;-64
2022/01/06 07:08:16;;;;;;;17.48;4.53;;;4.20;99.90;;;;;;5076096;28;20044;-63
2022/01/06 07:10:42;;;;;;;16.00;4.55;;;4.10;99.90;;;;;;5075388;28;20029;-64
2022/01/06 07:13:09;;;;;;;16.23;4.15;;;4.10;99.90;;;;;;5076744;28;20036;-63
2022/01/06 07:15:41;;;;;;;15.48;3.80;;;4.20;99.90;;;;;;5076685;28;20040;-64
2022/01/06 07:18:07;;;;;;;21.58;4.30;;;4.20;99.90;;;;;;5076800;28;20066;-63
2022/01/06 07:20:33;;;;;;;17.17;3.97;;;4.20;99.90;;;;;;5076662;28;20102;-64
2022/01/06 07:22:59;;;;;;;16.63;3.92;;;4.30;99.90;;;;;;5075903;28;20032;-64
2022/01/06 07:25:25;;;;;;;13.95;4.32;;;4.20;99.90;;;;;;5076585;28;20029;-64
2022/01/06 07:27:51;;;;;;;17.17;4.05;;;4.10;99.90;;;;;;5075746;28;20319;-64
2022/01/06 07:30:17;;;;;;;19.95;4.30;;;4.00;99.90;;;;;;5075738;28;20090;-63
2022/01/06 07:32:48;;;;;;;16.95;4.28;;;3.90;99.90;;;;;;5075765;28;20098;-64
2022/01/06 07:35:16;;;;;;;20.23;4.38;;;3.80;99.90;;;;;;5076538;28;20028;-64
2022/01/06 07:37:42;;;;;;;20.00;4.50;;;3.70;99.90;;;;;;5075523;28;20055;-64
2022/01/06 07:40:09;;;;;;;21.30;5.45;;;3.70;99.90;;;;;;5076556;28;20120;-64
2022/01/06 07:42:36;;;;;;;16.13;4.45;;;3.60;99.90;;;;;;5076193;28;20032;-64
2022/01/06 07:45:03;;;;;;;32.53;13.40;;;3.60;99.90;;;;;;5075977;28;20334;-63
2022/01/06 07:47:32;;;;;;;16.35;5.10;;;3.70;99.90;;;;;;5076298;28;20042;-62
2022/01/06 07:49:58;;;;;;;15.70;4.90;;;3.80;99.90;;;;;;5076311;28;20116;-62
2022/01/06 07:52:24;;;;;;;17.60;4.85;;;3.80;99.90;;;;;;5075494;28;20033;-62
2022/01/06 07:54:50;;;;;;;16.40;4.32;;;3.80;99.90;;;;;;5075404;28;20036;-62
2022/01/06 07:57:16;;;;;;;18.67;4.63;;;3.90;99.90;;;;;;5076027;28;20518;-63
2022/01/06 07:59:42;;;;;;;13.30;4.28;;;4.00;99.90;;;;;;5076277;28;20031;-63
2022/01/06 08:02:09;;;;;;;16.08;4.55;;;3.90;99.90;;;;;;5076609;28;20040;-62
2022/01/06 08:04:35;;;;;;;16.77;4.25;;;3.80;99.90;;;;;;5075517;28;20115;-62
2022/01/06 08:07:01;;;;;;;12.80;4.95;;;3.80;99.90;;;;;;5076280;28;20288;-62
2022/01/06 08:09:27;;;;;;;18.67;4.60;;;3.80;99.90;;;;;;5075368;28;20083;-63
2022/01/06 08:11:53;;;;;;;15.05;4.38;;;3.80;99.90;;;;;;5076230;28;20502;-62
2022/01/06 08:14:19;;;;;;;17.10;4.65;;;3.80;99.90;;;;;;5076140;28;20139;-61
2022/01/06 08:16:46;;;;;;;13.35;4.43;;;3.80;99.90;;;;;;5075340;28;20115;-62
2022/01/06 08:19:12;;;;;;;13.20;4.68;;;3.80;99.90;;;;;;5075244;28;20072;-62
2022/01/06 08:21:38;;;;;;;14.02;4.93;;;3.80;99.90;;;;;;5077919;28;20359;-62
2022/01/06 08:24:04;;;;;;;12.05;4.68;;;3.90;99.90;;;;;;5079616;28;20035;-62
2022/01/06 08:26:31;;;;;;;15.00;4.57;;;3.90;99.90;;;;;;5079562;28;20051;-62
2022/01/06 08:28:57;;;;;;;19.15;5.15;;;3.90;99.90;;;;;;5079538;28;20048;-62
2022/01/06 08:31:23;;;;;;;17.65;5.78;;;4.00;99.90;;;;;;5079576;28;20037;-62
2022/01/06 08:33:51;;;;;;;18.73;4.65;;;4.00;99.90;;;;;;5079690;28;20364;-63
2022/01/06 08:36:18;;;;;;;21.35;6.15;;;4.10;99.90;;;;;;5079209;28;20047;-64
2022/01/06 08:38:43;;;;;;;18.25;5.50;;;4.20;99.90;;;;;;5079442;28;20029;-62
2022/01/06 08:41:10;;;;;;;13.80;5.75;;;4.20;99.90;;;;;;5079318;28;20036;-62
2022/01/06 08:43:36;;;;;;;17.70;5.32;;;4.30;99.90;;;;;;5078568;28;20297;-62
2022/01/06 08:46:02;;;;;;;17.27;5.63;;;4.30;99.90;;;;;;5061883;28;20115;-62
2022/01/06 08:48:31;;;;;;;17.83;5.63;;;4.40;99.90;;;;;;5078454;28;20464;-61
2022/01/06 08:50:57;;;;;;;19.02;6.05;;;4.40;99.90;;;;;;5079143;28;20078;-62
2022/01/06 08:53:24;;;;;;;18.77;5.70;;;4.20;99.90;;;;;;5079251;28;20032;-61
2022/01/06 08:55:50;;;;;;;17.38;5.75;;;4.20;99.90;;;;;;5078491;28;20037;-61
2022/01/06 08:58:16;;;;;;;20.65;6.13;;;4.20;99.90;;;;;;5078302;28;20029;-62
2022/01/06 09:00:43;;;;;;;15.73;5.28;;;4.20;99.90;;;;;;5079039;28;20033;-63
2022/01/06 09:03:10;;;;;;;15.45;5.20;;;4.40;99.90;;;;;;5078143;28;20430;-63
2022/01/06 09:05:37;;;;;;;15.65;4.97;;;4.40;99.90;;;;;;5079196;28;20419;-62
2022/01/06 09:08:06;;;;;;;20.10;4.72;;;4.40;99.90;;;;;;5079160;28;20024;-63
2022/01/06 09:10:34;;;;;;;13.45;4.88;;;4.40;99.90;;;;;;5078134;28;20039;-63
2022/01/06 09:13:03;;;;;;;14.75;5.32;;;4.30;99.90;;;;;;5078706;28;20072;-63
2022/01/06 09:15:29;;;;;;;13.15;5.60;;;4.20;99.90;;;;;;5078773;28;20036;-62
2022/01/06 09:17:57;;;;;;;16.55;5.18;;;4.10;99.90;;;;;;5078675;28;20024;-63
2022/01/06 09:20:23;;;;;;;14.60;5.20;;;4.20;99.90;;;;;;5077792;28;20040;-62
2022/01/06 09:22:49;;;;;;;17.52;5.07;;;4.20;99.90;;;;;;5078667;28;20038;-63
2022/01/06 09:25:16;;;;;;;17.52;4.82;;;4.30;99.90;;;;;;5078460;28;20467;-63
2022/01/06 09:27:42;;;;;;;13.98;4.60;;;4.30;99.90;;;;;;5078337;28;20029;-62
2022/01/06 09:30:10;;;;;;;18.80;5.30;;;4.40;99.90;;;;;;5078303;28;20085;-62
2022/01/06 09:32:37;;;;;;;16.80;5.40;;;4.40;99.90;;;;;;5077653;28;20090;-61
2022/01/06 09:35:03;;;;;;;18.65;4.72;;;4.50;99.90;;;;;;5078267;28;20032;-62
2022/01/06 09:37:29;;;;;;;19.02;4.97;;;4.60;99.90;;;;;;5077959;28;20139;-62
2022/01/06 09:39:55;;;;;;;12.68;4.97;;;4.70;99.90;;;;;;5060645;28;20068;-62
2022/01/06 09:42:21;;;;;;;18.73;5.05;;;4.70;99.90;;;;;;5077633;28;20277;-62
2022/01/06 09:44:49;;;;;;;17.55;5.45;;;4.70;99.90;;;;;;5078560;28;20422;-63
2022/01/06 09:47:17;;;;;;;16.63;5.00;;;4.80;99.90;;;;;;5060630;28;20036;-63
2022/01/06 09:49:44;;;;;;;15.20;4.78;;;4.90;99.90;;;;;;5077883;28;20127;-62
2022/01/06 09:52:11;;;;;;;23.33;5.03;;;4.80;99.90;;;;;;5078124;28;20057;-62
2022/01/06 09:54:38;;;;;;;16.75;4.57;;;4.80;99.90;;;;;;5077149;28;20119;-62
2022/01/06 09:57:05;;;;;;;19.85;4.55;;;5.00;99.90;;;;;;5077749;28;20037;-62
2022/01/06 09:59:31;;;;;;;13.65;4.25;;;5.20;99.90;;;;;;5077085;28;20089;-62
2022/01/06 10:01:58;;;;;;;22.05;4.78;;;5.40;99.90;;;;;;5076947;28;20040;-62
2022/01/06 10:04:29;;;;;;;14.55;4.10;;;5.60;99.90;;;;;;5077633;28;20064;-63
2022/01/06 10:07:07;;;;;;;9.55;3.97;;;5.70;99.90;;;;;;5076812;28;20319;-63
2022/01/06 10:09:34;;;;;;;16.67;4.20;;;5.90;99.90;;;;;;5077616;28;20060;-63
2022/01/06 10:12:08;;;;;;;12.63;4.07;;;6.10;99.90;;;;;;5077480;28;20036;-63
2022/01/06 10:14:44;;;;;;;15.52;4.15;;;6.40;99.90;;;;;;5077476;28;20119;-63
2022/01/06 10:17:15;;;;;;;13.15;3.83;;;6.40;99.90;;;;;;5077503;28;20282;-63
2022/01/06 10:19:43;;;;;;;15.77;3.97;;;6.30;99.90;;;;;;5077754;28;20261;-63
2022/01/06 10:22:15;;;;;;;13.75;4.20;;;6.40;99.90;;;;;;5077223;28;20249;-63
2022/01/06 10:24:44;;;;;;;14.38;3.70;;;6.60;99.90;;;;;;5077509;28;20450;-63
2022/01/06 10:27:11;;;;;;;19.58;4.18;;;6.70;99.90;;;;;;5077558;28;20296;-63
2022/01/06 10:29:44;;;;;;;17.17;4.68;;;6.80;99.90;;;;;;5077130;28;20032;-63
2022/01/06 10:32:13;;;;;;;16.48;4.20;;;6.80;99.90;;;;;;5077197;28;20078;-62
2022/01/06 10:34:41;;;;;;;12.93;3.67;;;7.10;99.90;;;;;;5077112;28;20032;-62
2022/01/06 10:37:20;;;;;;;14.25;3.55;;;7.90;99.90;;;;;;5076903;28;20040;-63
2022/01/06 10:39:48;;;;;;;10.52;3.75;;;8.20;99.90;;;;;;5077215;28;20366;-64
2022/01/06 10:42:14;;;;;;;16.00;4.40;;;8.50;99.90;;;;;;5076175;28;20020;-62
2022/01/06 10:44:51;;;;;;;21.85;4.18;;;8.90;99.90;;;;;;5076021;28;20310;-62
2022/01/06 10:47:30;;;;;;;16.17;4.28;;;9.80;99.90;;;;;;5076254;28;20040;-62
2022/01/06 10:50:17;;;;;;;11.57;3.90;;;10.10;99.90;;;;;;5076712;28;20024;-62
2022/01/06 10:52:50;;;;;;;11.95;4.05;;;9.50;99.90;;;;;;5076102;28;20032;-62
2022/01/06 10:55:23;;;;;;;12.88;3.88;;;9.50;99.90;;;;;;5076070;28;20108;-62
2022/01/06 10:57:53;;;;;;;;;;;10.30;99.90;;;;;;5076296;28;20035;-61
2022/01/06 11:00:20;;;;;;;15.60;4.25;;;10.10;99.90;;;;;;5076804;28;19908;-62
2022/01/06 11:02:46;;;;;;;11.52;3.78;;;10.50;99.90;;;;;;5076619;28;20045;-62
2022/01/06 11:05:12;;;;;;;16.27;3.80;;;10.40;99.90;;;;;;5077120;28;20426;-62
2022/01/06 11:07:38;;;;;;;13.20;3.92;;;11.10;99.90;;;;;;5077292;28;20052;-62
2022/01/06 11:10:15;;;;;;;13.25;3.60;;;11.20;99.90;;;;;;5059422;28;20303;-62
2022/01/06 11:12:41;;;;;;;12.38;3.70;;;10.50;99.90;;;;;;5076832;28;20102;-62
2022/01/06 11:15:08;;;;;;;11.23;3.45;;;11.00;99.90;;;;;;5076707;28;20339;-61
2022/01/06 11:17:35;;;;;;;13.48;4.32;;;11.40;99.90;;;;;;5076627;28;20032;-61
2022/01/06 11:20:01;;;;;;;16.80;4.03;;;11.50;99.90;;;;;;5076710;28;20039;-62
2022/01/06 11:22:27;;;;;;;9.52;3.47;;;11.50;99.90;;;;;;5075740;28;20047;-62
2022/01/06 11:24:54;;;;;;;15.23;3.88;;;11.50;99.90;;;;;;5076672;28;20296;-61
2022/01/06 11:27:59;;;;;;;14.75;3.80;;;11.50;99.90;;;;;;5075919;28;20300;-62
2022/01/06 11:30:27;;;;;;;16.40;3.58;;;10.20;99.90;;;;;;5068667;28;20036;-62
2022/01/06 11:32:58;;;;;;;13.80;3.70;;;9.60;99.90;;;;;;5076481;28;20024;-62
2022/01/06 11:35:24;;;;;;;10.77;3.65;;;9.70;99.90;;;;;;5076547;28;20029;-62
2022/01/06 11:37:52;;;;;;;15.68;4.20;;;9.60;99.90;;;;;;5076408;28;20064;-62
2022/01/06 11:40:32;;;;;;;17.83;4.20;;;9.60;99.90;;;;;;5076528;28;20037;-62
2022/01/06 11:42:59;;;;;;;16.88;4.20;;;9.10;99.90;;;;;;5076313;28;20036;-62
2022/01/06 11:45:26;;;;;;;21.65;4.63;;;8.50;99.90;;;;;;5076318;28;20392;-63
2022/01/06 11:48:04;;;;;;;17.33;4.30;;;8.50;99.90;;;;;;5076768;28;20036;-63
2022/01/06 11:50:40;;;;;;;14.15;3.80;;;8.70;99.90;;;;;;5076314;28;20285;-62
2022/01/06 11:53:08;;;;;;;13.73;3.63;;;8.70;99.90;;;;;;5076938;28;20024;-63
2022/01/06 11:55:38;;;;;;;18.90;4.47;;;8.80;99.90;;;;;;5076721;28;20033;-62
2022/01/06 11:58:13;;;;;;;17.30;4.57;;;8.90;99.90;;;;;;5080064;28;20097;-62
2022/01/06 12:00:42;;;;;;;13.38;3.97;;;8.90;99.90;;;;;;5080054;28;20040;-63
2022/01/06 12:03:13;;;;;;;19.38;4.70;;;8.50;99.90;;;;;;5079854;28;20035;-63
2022/01/06 12:05:48;;;;;;;16.63;3.88;;;8.00;99.90;;;;;;5079965;28;20033;-63
2022/01/06 12:08:18;;;;;;;15.73;3.90;;;7.80;99.90;;;;;;5080016;28;20347;-64
2022/01/06 12:10:46;;;;;;;16.70;3.85;;;7.90;99.90;;;;;;5080379;28;20049;-62
2022/01/06 12:13:13;;;;;;;12.45;3.65;;;8.00;99.90;;;;;;5079047;28;20044;-62
2022/01/06 12:15:50;;;;;;;14.63;3.65;;;8.20;99.90;;;;;;5079885;28;20067;-62
2022/01/06 12:18:24;;;;;;;13.68;3.83;;;8.30;99.90;;;;;;5079694;28;20064;-63
2022/01/06 12:20:52;;;;;;;14.45;3.50;;;8.40;99.90;;;;;;5078744;28;20029;-63
2022/01/06 12:23:19;;;;;;;15.23;3.72;;;8.30;99.90;;;;;;5079539;28;20068;-62
2022/01/06 12:25:55;;;;;;;17.80;4.35;;;8.30;99.90;;;;;;5079604;28;20078;-62
2022/01/06 12:28:21;;;;;;;20.25;3.70;;;8.30;99.90;;;;;;5078824;28;20029;-64
2022/01/06 12:30:47;;;;;;;16.73;4.30;;;8.30;99.90;;;;;;5079013;28;20028;-63
2022/01/06 12:33:14;;;;;;;16.98;4.25;;;8.40;99.90;;;;;;5078792;28;20032;-63
2022/01/06 12:35:51;;;;;;;17.95;3.72;;;8.40;99.90;;;;;;5079355;28;20056;-63
2022/01/06 12:38:25;;;;;;;20.13;4.60;;;8.50;99.90;;;;;;5079554;28;20040;-63
2022/01/06 12:40:51;;;;;;;15.68;4.13;;;8.50;99.90;;;;;;5079949;28;20036;-63
2022/01/06 12:43:24;;;;;;;22.63;4.10;;;8.20;99.90;;;;;;5079348;28;20028;-63
2022/01/06 12:46:19;;;;;;;14.90;4.50;;;7.90;99.90;;;;;;5079822;28;20292;-63
2022/01/06 12:48:51;;;;;;;13.40;3.83;;;7.90;99.90;;;;;;5070592;28;20040;-63
2022/01/06 12:51:21;;;;;;;16.98;3.70;;;7.90;99.90;;;;;;5079708;28;20111;-63
2022/01/06 12:53:49;;;;;;;16.63;3.63;;;7.60;99.90;;;;;;5079283;28;20299;-64
2022/01/06 12:56:32;;;;;;;12.52;3.50;;;7.40;99.90;;;;;;5078948;28;20032;-63
2022/01/06 12:59:00;;;;;;;14.90;3.67;;;7.50;99.90;;;;;;5079075;28;20059;-63
2022/01/06 13:01:27;;;;;;;14.60;3.60;;;7.80;99.90;;;;;;5078231;28;20040;-65